createdAt,value
2022-09-10T00:01:40.643Z,16.67
2022-09-10T00:04:12.422Z,15.70
2022-09-10T00:06:41.651Z,16.87
2022-09-10T00:09:12.663Z,16.13
2022-09-10T00:11:42.254Z,15.53
2022-09-10T00:14:15.240Z,16.03
2022-09-10T00:16:43.944Z,16.77
2022-09-10T00:19:12.663Z,15.60
2022-09-10T00:21:41.474Z,15.43
2022-09-10T00:24:11.760Z,15.30
2022-09-10T00:26:41.642Z,15.93
2022-09-10T00:29:13.386Z,15.17
2022-09-10T00:31:42.812Z,16.50
2022-09-10T00:34:13.272Z,14.90
2022-09-10T00:36:45.093Z,16.37
2022-09-10T00:39:16.912Z,16.37
2022-09-10T00:41:47.413Z,14.50
2022-09-10T00:44:56.102Z,15.70
2022-09-10T00:47:30.184Z,17.20
2022-09-10T00:50:04.425Z,16.30
2022-09-10T00:52:38.919Z,17.77
2022-09-10T00:55:11.078Z,15.90
2022-09-10T00:57:40.336Z,16.67
2022-09-10T01:00:12.231Z,15.70
2022-09-10T01:02:42.015Z,16.47
2022-09-10T01:05:11.960Z,16.13
2022-09-10T01:07:40.735Z,18.80
2022-09-10T01:10:14.828Z,16.80
2022-09-10T01:12:59.580Z,17.27
2022-09-10T01:15:36.133Z,15.77
2022-09-10T01:18:18.742Z,15.80
2022-09-10T01:21:08.705Z,17.53
2022-09-10T01:24:10.179Z,18.67
2022-09-10T01:27:17.391Z,17.00
2022-09-10T01:29:53.319Z,17.73
2022-09-10T01:32:28.793Z,17.10
2022-09-10T01:35:05.406Z,18.53
2022-09-10T01:37:39.228Z,18.10
2022-09-10T01:40:08.786Z,18.27
2022-09-10T01:42:40.248Z,18.77
2022-09-10T01:45:14.732Z,19.17
2022-09-10T01:48:14.410Z,18.40
2022-09-10T01:50:50.157Z,19.77
2022-09-10T01:53:39.495Z,19.33
2022-09-10T01:56:19.144Z,19.33
2022-09-10T01:58:48.690Z,19.83
2022-09-10T02:01:24.430Z,19.03
2022-09-10T02:03:59.630Z,18.77
2022-09-10T02:06:31.865Z,20.13
2022-09-10T02:09:01.623Z,20.30
2022-09-10T02:11:31.460Z,18.90
2022-09-10T02:14:00.178Z,19.13
2022-09-10T02:16:32.340Z,21.23
2022-09-10T02:19:02.076Z,21.93
2022-09-10T02:21:32.173Z,20.97
2022-09-10T02:24:05.853Z,19.20
2022-09-10T02:26:34.708Z,22.07
2022-09-10T02:29:03.357Z,21.60
2022-09-10T02:31:33.477Z,21.53
2022-09-10T02:34:03.329Z,19.57
2022-09-10T02:36:31.949Z,22.30
2022-09-10T02:39:02.938Z,20.20
2022-09-10T02:41:34.044Z,20.57
2022-09-10T02:44:03.588Z,19.50
2022-09-10T02:46:33.769Z,20.43
2022-09-10T02:49:03.121Z,19.57
2022-09-10T02:51:31.936Z,20.87
2022-09-10T02:54:01.398Z,19.93
2022-09-10T02:56:30.294Z,21.13
2022-09-10T02:58:59.001Z,20.70
2022-09-10T03:01:28.132Z,19.47
2022-09-10T03:03:59.262Z,19.23
2022-09-10T03:06:28.746Z,20.23
2022-09-10T03:08:57.833Z,19.43
2022-09-10T03:11:27.787Z,20.43
2022-09-10T03:13:56.817Z,21.03
2022-09-10T03:16:25.557Z,19.73
2022-09-10T03:18:54.557Z,20.00
2022-09-10T03:21:26.327Z,20.03
2022-09-10T03:23:57.183Z,20.23
2022-09-10T03:26:26.680Z,21.30
2022-09-10T03:28:55.406Z,20.17
2022-09-10T03:31:24.805Z,21.40
2022-09-10T03:33:53.755Z,21.57
2022-09-10T03:36:23.091Z,20.93
2022-09-10T03:38:53.013Z,20.73
2022-09-10T03:41:21.597Z,21.40
2022-09-10T03:43:50.463Z,20.97
2022-09-10T03:46:19.377Z,20.53
2022-09-10T03:48:52.038Z,23.73
2022-09-10T03:51:23.832Z,20.27
2022-09-10T03:53:53.834Z,20.87
2022-09-10T03:56:22.511Z,20.67
2022-09-10T03:58:52.005Z,19.80
2022-09-10T04:01:21.986Z,19.47
2022-09-10T04:03:50.610Z,22.47
2022-09-10T04:06:19.354Z,20.20
2022-09-10T04:08:52.133Z,22.67
2022-09-10T04:11:24.355Z,20.27
2022-09-10T04:13:53.042Z,20.43
2022-09-10T04:16:23.595Z,21.90
2022-09-10T04:18:52.286Z,20.67
2022-09-10T04:21:21.187Z,20.93
2022-09-10T04:23:53.662Z,21.03
2022-09-10T04:26:23.852Z,21.03
2022-09-10T04:28:52.635Z,20.07
2022-09-10T04:31:21.452Z,21.70
2022-09-10T04:33:50.101Z,19.40
2022-09-10T04:36:20.377Z,21.53
2022-09-10T04:38:49.306Z,20.67
2022-09-10T04:41:19.631Z,22.93
2022-09-10T04:43:49.730Z,21.23
2022-09-10T04:46:18.742Z,19.37
2022-09-10T04:48:47.473Z,21.93
2022-09-10T04:51:18.331Z,21.00
2022-09-10T04:53:47.525Z,21.47
2022-09-10T04:56:16.674Z,23.13
2022-09-10T04:58:45.649Z,20.90
2022-09-10T05:01:16.011Z,21.13
2022-09-10T05:03:44.655Z,22.37
2022-09-10T05:06:13.309Z,21.37
2022-09-10T05:08:41.861Z,21.67
2022-09-10T05:11:10.519Z,20.70
2022-09-10T05:13:39.535Z,20.37
2022-09-10T05:16:08.893Z,21.53
2022-09-10T05:18:39.477Z,23.27
2022-09-10T05:21:08.263Z,21.40
2022-09-10T05:23:37.188Z,21.90
2022-09-10T05:26:05.802Z,20.77
2022-09-10T05:28:34.629Z,21.33
2022-09-10T05:31:03.328Z,22.67
2022-09-10T05:33:31.903Z,21.13
2022-09-10T05:36:02.177Z,18.87
2022-09-10T05:38:31.501Z,20.87
2022-09-10T05:41:01.114Z,19.57
2022-09-10T05:43:30.164Z,21.43
2022-09-10T05:45:59.090Z,20.97
2022-09-10T05:48:27.944Z,19.07
2022-09-10T05:50:56.669Z,23.00
2022-09-10T05:53:26.744Z,20.60
2022-09-10T05:55:55.420Z,21.23
2022-09-10T05:58:23.970Z,21.73
2022-09-10T06:00:54.848Z,23.47
2022-09-10T06:03:23.764Z,20.37
2022-09-10T06:05:52.959Z,19.77
2022-09-10T06:08:21.902Z,21.80
2022-09-10T06:10:59.124Z,21.60
2022-09-10T06:13:28.336Z,20.90
2022-09-10T06:15:57.543Z,21.67
2022-09-10T06:18:26.216Z,21.37
2022-09-10T06:21:07.146Z,21.43
2022-09-10T06:23:36.212Z,22.87
2022-09-10T06:26:08.560Z,22.33
2022-09-10T06:28:37.667Z,20.80
2022-09-10T06:31:08.202Z,21.40
2022-09-10T06:33:36.995Z,22.70
2022-09-10T06:36:05.958Z,21.23
2022-09-10T06:38:35.604Z,22.77
2022-09-10T06:41:08.052Z,21.07
2022-09-10T06:43:37.869Z,22.60
2022-09-10T06:46:32.004Z,21.40
2022-09-10T06:49:02.459Z,19.87
2022-09-10T06:51:32.846Z,22.57
2022-09-10T06:54:02.800Z,21.53
2022-09-10T06:56:32.918Z,21.83
2022-09-10T06:59:02.756Z,20.43
2022-09-10T07:01:32.006Z,21.30
2022-09-10T07:04:02.104Z,21.07
2022-09-10T07:06:33.693Z,20.60
2022-09-10T07:09:02.905Z,22.10
2022-09-10T07:11:33.880Z,21.10
2022-09-10T07:14:03.823Z,22.27
2022-09-10T07:16:32.463Z,21.40
2022-09-10T07:19:01.776Z,19.67
2022-09-10T07:21:30.431Z,20.50
2022-09-10T07:24:01.211Z,20.37
2022-09-10T07:26:30.006Z,21.10
2022-09-10T07:29:00.849Z,19.90
2022-09-10T07:31:31.545Z,19.43
2022-09-10T07:34:01.074Z,19.53
2022-09-10T07:36:30.685Z,19.37
2022-09-10T07:39:01.883Z,19.57
2022-09-10T07:41:31.622Z,19.07
2022-09-10T07:44:01.636Z,19.40
2022-09-10T07:46:30.267Z,19.93
2022-09-10T07:49:00.644Z,17.83
2022-09-10T07:51:32.526Z,18.63
2022-09-10T07:54:01.595Z,18.63
2022-09-10T07:56:31.947Z,17.97
2022-09-10T07:59:02.937Z,22.83
2022-09-10T08:01:32.009Z,18.77
2022-09-10T08:04:00.846Z,19.10
2022-09-10T08:06:29.522Z,20.00
2022-09-10T08:08:58.087Z,18.30
2022-09-10T08:11:27.257Z,18.53
2022-09-10T08:13:56.983Z,17.83
2022-09-10T08:16:29.070Z,16.40
2022-09-10T08:18:57.952Z,17.80
2022-09-10T08:21:27.218Z,17.53
2022-09-10T08:23:56.491Z,19.23
2022-09-10T08:26:27.549Z,17.63
2022-09-10T08:28:57.868Z,19.13
2022-09-10T08:31:27.890Z,16.37
2022-09-10T08:33:58.198Z,17.13
2022-09-10T08:36:26.979Z,18.70
2022-09-10T08:39:00.713Z,18.83
2022-09-10T08:41:42.798Z,18.27
2022-09-10T08:44:18.890Z,18.93
2022-09-10T08:46:52.870Z,19.07
2022-09-10T08:49:31.836Z,18.10
2022-09-10T08:52:04.345Z,17.87
2022-09-10T08:54:37.560Z,18.70
2022-09-10T08:57:11.498Z,18.47
2022-09-10T08:59:45.891Z,18.70
2022-09-10T09:02:44.795Z,19.00
2022-09-10T09:05:15.822Z,19.67
2022-09-10T09:07:45.160Z,18.27
2022-09-10T09:10:33.884Z,18.10
2022-09-10T09:13:29.190Z,17.50
2022-09-10T09:16:08.201Z,17.83
2022-09-10T09:18:48.977Z,17.90
2022-09-10T09:21:20.572Z,17.07
2022-09-10T09:24:13.600Z,18.03
2022-09-10T09:26:46.229Z,17.30
2022-09-10T09:29:19.398Z,17.73
2022-09-10T09:31:52.630Z,16.27
2022-09-10T09:34:28.893Z,16.07
2022-09-10T09:37:03.345Z,16.50
2022-09-10T09:39:44.120Z,16.77
2022-09-10T09:42:21.084Z,17.87
2022-09-10T09:44:57.377Z,17.63
2022-09-10T09:47:26.066Z,17.63
2022-09-10T09:49:56.519Z,18.90
2022-09-10T09:52:26.567Z,19.33
2022-09-10T09:55:16.133Z,18.93
2022-09-10T09:57:45.046Z,18.90
2022-09-10T10:00:38.339Z,18.70
2022-09-10T10:03:14.943Z,17.60
2022-09-10T10:05:45.043Z,19.30
2022-09-10T10:08:31.237Z,20.03
2022-09-10T10:11:00.308Z,18.73
2022-09-10T10:13:39.160Z,20.10
2022-09-10T10:16:18.303Z,21.17
2022-09-10T10:18:47.452Z,21.53
2022-09-10T10:21:23.500Z,19.57
2022-09-10T10:23:52.067Z,19.37
2022-09-10T10:26:32.227Z,18.53
2022-09-10T10:29:04.344Z,20.10
2022-09-10T10:31:40.019Z,19.57
2022-09-10T10:34:36.768Z,19.13
2022-09-10T10:37:14.666Z,21.23
2022-09-10T10:40:04.538Z,21.13
2022-09-10T10:42:37.813Z,21.23
2022-09-10T10:45:26.731Z,20.70
2022-09-10T10:48:01.306Z,17.90
2022-09-10T10:50:38.745Z,20.33
2022-09-10T10:53:36.185Z,20.40
2022-09-10T10:56:10.551Z,20.90
2022-09-10T10:59:10.195Z,19.83
2022-09-10T11:01:42.972Z,21.03
2022-09-10T11:04:28.586Z,20.97
2022-09-10T11:07:05.132Z,21.00
2022-09-10T11:09:41.689Z,20.57
2022-09-10T11:12:15.187Z,19.60
2022-09-10T11:14:49.506Z,21.77
2022-09-10T11:17:22.632Z,20.93
2022-09-10T11:20:24.613Z,21.43
2022-09-10T11:22:57.016Z,20.30
2022-09-10T11:25:29.933Z,21.63
2022-09-10T11:28:05.767Z,20.53
2022-09-10T11:30:35.629Z,21.77
2022-09-10T11:33:14.602Z,22.03
2022-09-10T11:35:47.106Z,20.23
2022-09-10T11:38:23.270Z,19.80
2022-09-10T11:41:05.584Z,19.07
2022-09-10T11:43:41.492Z,21.37
2022-09-10T11:46:14.083Z,22.00
2022-09-10T11:48:47.690Z,20.37
2022-09-10T11:51:23.384Z,20.53
2022-09-10T11:53:52.396Z,21.70
2022-09-10T11:56:53.514Z,19.23
2022-09-10T11:59:43.354Z,19.03
2022-09-10T12:02:42.044Z,19.93
2022-09-10T12:05:24.118Z,19.90
2022-09-10T12:08:00.906Z,18.73
2022-09-10T12:10:36.544Z,19.37
2022-09-10T12:13:11.822Z,18.67
2022-09-10T12:15:40.765Z,18.27
2022-09-10T12:18:16.975Z,17.87
2022-09-10T12:20:51.250Z,17.73
2022-09-10T12:23:26.908Z,17.40
2022-09-10T12:26:00.577Z,17.40
2022-09-10T12:29:02.880Z,16.57
2022-09-10T12:32:10.762Z,16.90
2022-09-10T12:34:39.805Z,17.90
2022-09-10T12:37:23.734Z,16.83
2022-09-10T12:40:26.213Z,19.10
2022-09-10T12:43:00.372Z,17.57
2022-09-10T12:46:05.321Z,17.93
2022-09-10T12:48:35.941Z,18.03
2022-09-10T12:51:16.156Z,18.77
2022-09-10T12:54:01.609Z,19.63
2022-09-10T12:56:55.706Z,17.87
2022-09-10T13:00:04.544Z,17.47
2022-09-10T13:02:37.349Z,17.90
2022-09-10T13:05:18.807Z,19.10
2022-09-10T13:07:51.594Z,19.23
2022-09-10T13:10:24.327Z,18.30
2022-09-10T13:12:56.639Z,18.17
2022-09-10T13:15:28.135Z,19.17
2022-09-10T13:18:33.994Z,17.43
2022-09-10T13:21:48.157Z,18.60
2022-09-10T13:24:38.371Z,19.17
2022-09-10T13:27:21.592Z,20.73
2022-09-10T13:29:54.095Z,18.50
2022-09-10T13:32:30.611Z,19.37
2022-09-10T13:35:23.651Z,17.50
2022-09-10T13:38:33.296Z,19.80
2022-09-10T13:41:27.859Z,18.40
2022-09-10T13:44:12.944Z,18.43
2022-09-10T13:46:44.137Z,19.20
2022-09-10T13:49:19.182Z,19.53
2022-09-10T13:51:52.926Z,18.47
2022-09-10T13:54:33.257Z,17.80
2022-09-10T13:57:07.220Z,19.37
2022-09-10T13:59:38.260Z,18.67
2022-09-10T14:02:06.833Z,21.83
2022-09-10T14:04:39.908Z,18.70
2022-09-10T14:07:16.465Z,20.80
2022-09-10T14:09:47.109Z,20.20
2022-09-10T14:12:18.644Z,19.30
2022-09-10T14:14:51.720Z,19.30
2022-09-10T14:17:25.712Z,20.10
2022-09-10T14:19:59.331Z,18.90
2022-09-10T14:22:31.990Z,21.20
2022-09-10T14:25:02.837Z,19.50
2022-09-10T14:27:33.468Z,19.17
2022-09-10T14:30:21.887Z,19.87
2022-09-10T14:32:52.000Z,18.60
2022-09-10T14:35:38.149Z,21.00
2022-09-10T14:38:23.615Z,19.83
2022-09-10T14:40:57.983Z,19.20
2022-09-10T14:43:32.686Z,18.60
2022-09-10T14:46:02.814Z,20.47
2022-09-10T14:48:35.785Z,19.30
2022-09-10T14:51:12.279Z,19.10
2022-09-10T14:53:43.766Z,19.53
2022-09-10T14:56:22.895Z,19.23
2022-09-10T14:58:58.910Z,21.37
2022-09-10T15:01:28.849Z,18.63
2022-09-10T15:03:57.922Z,19.07
2022-09-10T15:06:27.142Z,19.70
2022-09-10T15:08:57.395Z,20.00
2022-09-10T15:11:28.060Z,19.53
2022-09-10T15:13:59.295Z,19.50
2022-09-10T15:16:28.269Z,20.73
2022-09-10T15:18:57.836Z,19.83
2022-09-10T15:21:26.775Z,21.00
2022-09-10T15:23:57.514Z,20.67
2022-09-10T15:26:26.724Z,19.80
2022-09-10T15:28:57.140Z,19.90
2022-09-10T15:31:29.585Z,18.53
2022-09-10T15:34:01.232Z,19.00
2022-09-10T15:36:30.134Z,19.93
2022-09-10T15:39:00.918Z,19.60
2022-09-10T15:41:29.726Z,19.93
2022-09-10T15:43:59.341Z,19.67
2022-09-10T15:46:27.975Z,18.57
2022-09-10T15:48:59.848Z,19.37
2022-09-10T15:51:28.704Z,19.83
2022-09-10T15:54:00.731Z,19.83
2022-09-10T15:56:33.457Z,21.07
2022-09-10T15:59:02.115Z,20.23
2022-09-10T16:01:31.094Z,18.63
2022-09-10T16:04:02.834Z,17.80
2022-09-10T16:06:34.554Z,18.80
2022-09-10T16:09:05.702Z,18.60
2022-09-10T16:11:37.875Z,18.40
2022-09-10T16:14:08.770Z,18.50
2022-09-10T16:16:39.143Z,19.50
2022-09-10T16:19:08.343Z,19.13
2022-09-10T16:21:39.250Z,18.27
2022-09-10T16:24:08.737Z,19.33
2022-09-10T16:26:41.088Z,20.37
2022-09-10T16:29:15.195Z,19.97
2022-09-10T16:31:45.523Z,19.50
2022-09-10T16:34:17.515Z,19.93
2022-09-10T16:36:48.969Z,19.87
2022-09-10T16:39:18.555Z,18.20
2022-09-10T16:41:50.019Z,18.93
2022-09-10T16:44:19.908Z,20.13
2022-09-10T16:46:49.163Z,20.63
2022-09-10T16:49:19.715Z,20.13
2022-09-10T16:51:50.125Z,19.17
2022-09-10T16:54:21.092Z,20.10
2022-09-10T16:56:51.825Z,20.40
2022-09-10T16:59:22.448Z,19.27
2022-09-10T17:01:52.629Z,19.60
2022-09-10T17:04:29.374Z,21.20
2022-09-10T17:06:59.090Z,20.57
2022-09-10T17:09:27.913Z,19.17
2022-09-10T17:11:57.973Z,20.63
2022-09-10T17:14:26.624Z,22.27
2022-09-10T17:16:56.053Z,21.87
2022-09-10T17:19:26.612Z,20.37
2022-09-10T17:21:56.926Z,20.60
2022-09-10T17:24:28.050Z,20.63
2022-09-10T17:26:58.028Z,19.70
2022-09-10T17:29:27.136Z,22.07
2022-09-10T17:31:57.659Z,23.63
2022-09-10T17:34:27.384Z,21.23
2022-09-10T17:36:56.344Z,20.27
2022-09-10T17:39:28.302Z,21.17
2022-09-10T17:41:58.970Z,22.07
2022-09-10T17:44:27.906Z,21.70
2022-09-10T17:46:56.706Z,19.03
2022-09-10T17:49:25.574Z,20.10
2022-09-10T17:51:54.442Z,22.57
2022-09-10T17:54:23.602Z,19.30
2022-09-10T17:56:52.216Z,20.13
2022-09-10T17:59:24.654Z,20.77
2022-09-10T18:01:53.260Z,20.27
2022-09-10T18:04:22.052Z,20.37
2022-09-10T18:06:52.644Z,23.27
2022-09-10T18:09:22.335Z,20.87
2022-09-10T18:11:51.012Z,19.97
2022-09-10T18:14:23.952Z,20.90
2022-09-10T18:16:54.004Z,19.60
2022-09-10T18:19:24.033Z,20.37
2022-09-10T18:21:52.766Z,22.50
2022-09-10T18:24:23.801Z,21.77
2022-09-10T18:26:54.685Z,22.93
2022-09-10T18:29:27.156Z,20.77
2022-09-10T18:31:58.637Z,20.70
2022-09-10T18:34:28.964Z,20.57
2022-09-10T18:36:59.441Z,21.97
2022-09-10T18:39:29.820Z,22.53
2022-09-10T18:41:59.028Z,19.93
2022-09-10T18:44:33.427Z,24.23
2022-09-10T18:47:02.178Z,20.80
2022-09-10T18:49:30.850Z,20.93
2022-09-10T18:51:59.634Z,20.97
2022-09-10T18:54:29.749Z,19.43
2022-09-10T18:56:58.651Z,19.27
2022-09-10T18:59:29.068Z,20.97
2022-09-10T19:01:57.955Z,20.53
2022-09-10T19:04:29.532Z,19.23
2022-09-10T19:06:59.112Z,18.43
2022-09-10T19:09:29.775Z,20.37
2022-09-10T19:12:00.548Z,21.00
2022-09-10T19:14:32.719Z,21.93
2022-09-10T19:17:02.383Z,20.47
2022-09-10T19:19:33.044Z,20.20
2022-09-10T19:22:04.015Z,19.90
2022-09-10T19:27:23.028Z,21.27
2022-09-10T19:29:54.199Z,21.57
2022-09-10T19:32:23.040Z,20.00
2022-09-10T19:34:52.176Z,21.27
2022-09-10T19:37:20.989Z,21.10
2022-09-10T19:39:49.767Z,22.33
2022-09-10T19:42:18.794Z,21.90
2022-09-10T19:44:48.201Z,21.60
2022-09-10T19:47:18.707Z,23.13
2022-09-10T19:49:47.529Z,23.47
2022-09-10T19:52:17.062Z,21.70
2022-09-10T19:54:45.617Z,22.13
2022-09-10T19:57:14.386Z,22.20
2022-09-10T19:59:42.972Z,22.00
2022-09-10T20:02:11.797Z,21.37
2022-09-10T20:04:42.031Z,22.17
2022-09-10T20:07:10.716Z,24.07
2022-09-10T20:09:40.057Z,22.73
2022-09-10T20:12:09.900Z,24.10
2022-09-10T20:14:39.216Z,23.13
2022-09-10T20:17:07.845Z,22.53
2022-09-10T20:19:36.571Z,22.10
2022-09-10T20:22:06.548Z,22.80
2022-09-10T20:24:35.402Z,22.13
2022-09-10T20:27:04.140Z,22.73
2022-09-10T20:29:32.890Z,24.83
2022-09-10T20:32:01.577Z,21.73
2022-09-10T20:34:31.339Z,25.63
2022-09-10T20:37:00.187Z,21.40
2022-09-10T20:39:31.861Z,23.17
2022-09-10T20:42:00.592Z,23.20
2022-09-10T20:44:30.115Z,27.27
2022-09-10T20:46:58.930Z,22.60
2022-09-10T20:49:27.900Z,25.43
2022-09-10T20:51:57.153Z,26.00
2022-09-10T20:54:25.732Z,23.67
2022-09-10T20:56:55.718Z,23.53
2022-09-10T20:59:27.682Z,26.93
2022-09-10T21:01:57.020Z,23.17
2022-09-10T21:04:26.592Z,25.03
2022-09-10T21:06:56.347Z,28.03
2022-09-10T21:09:24.960Z,24.20
2022-09-10T21:11:54.996Z,24.40
2022-09-10T21:14:25.596Z,23.53
2022-09-10T21:16:54.546Z,24.57
2022-09-10T21:19:23.369Z,26.50
2022-09-10T21:21:52.060Z,22.97
2022-09-10T21:24:23.035Z,22.97
2022-09-10T21:26:53.277Z,24.27
2022-09-10T21:29:23.652Z,22.27
2022-09-10T21:31:54.625Z,22.53
2022-09-10T21:34:24.628Z,24.57
2022-09-10T21:36:53.201Z,24.07
2022-09-10T21:39:21.963Z,23.17
2022-09-10T21:41:51.628Z,23.10
2022-09-10T21:44:24.407Z,22.30
2022-09-10T21:46:54.156Z,23.63
2022-09-10T21:49:22.785Z,24.13
2022-09-10T21:51:52.141Z,19.57
2022-09-10T21:54:22.489Z,26.67
2022-09-10T21:56:52.358Z,24.57
2022-09-10T21:59:22.963Z,22.30
2022-09-10T22:01:51.758Z,24.63
2022-09-10T22:04:23.314Z,25.13
2022-09-10T22:06:54.547Z,25.10
2022-09-10T22:09:24.380Z,24.03
2022-09-10T22:11:57.704Z,25.10
2022-09-10T22:14:27.857Z,23.70
2022-09-10T22:16:56.528Z,24.40
2022-09-10T22:19:27.522Z,22.93
2022-09-10T22:21:56.943Z,24.20
2022-09-10T22:24:26.180Z,24.73
2022-09-10T22:26:55.261Z,24.33
2022-09-10T22:29:25.209Z,23.47
2022-09-10T22:31:55.573Z,23.93
2022-09-10T22:34:24.632Z,24.37
2022-09-10T22:36:53.228Z,22.47
2022-09-10T22:39:23.271Z,22.23
2022-09-10T22:41:52.488Z,23.87
2022-09-10T22:44:23.212Z,23.33
2022-09-10T22:46:51.835Z,23.00
2022-09-10T22:49:21.999Z,23.40
2022-09-10T22:51:50.556Z,21.13
2022-09-10T22:54:19.125Z,21.97
2022-09-10T22:56:47.704Z,24.10
2022-09-10T22:59:16.976Z,23.73
2022-09-10T23:01:48.254Z,22.27
2022-09-10T23:04:17.581Z,23.47
2022-09-10T23:06:47.661Z,24.70
2022-09-10T23:09:18.147Z,23.83
2022-09-10T23:11:47.343Z,23.03
2022-09-10T23:14:19.322Z,22.20
2022-09-10T23:16:49.769Z,25.03
2022-09-10T23:19:20.066Z,25.63
2022-09-10T23:21:51.435Z,23.10
2022-09-10T23:24:22.259Z,24.87
2022-09-10T23:26:51.163Z,23.03
2022-09-10T23:29:23.057Z,22.87
2022-09-10T23:31:53.375Z,24.20
2022-09-10T23:34:23.132Z,24.10
2022-09-10T23:36:53.748Z,22.30
2022-09-10T23:39:24.436Z,22.70
2022-09-10T23:41:54.786Z,22.80
2022-09-10T23:44:23.831Z,23.20
2022-09-10T23:46:53.575Z,23.80
2022-09-10T23:49:22.710Z,21.17
2022-09-10T23:51:52.674Z,23.20
2022-09-10T23:54:21.295Z,21.00
2022-09-10T23:56:50.240Z,23.20
2022-09-10T23:59:19.693Z,24.43
